Time;durP1;ratioP1;P1;durP2;ratioP2;P2;SDS_P1;SDS_P2;PMS_P1;PMS_P2;Temp;Humidity;BMP_temperature;BMP_pressure;BME280_temperature;BME280_humidity;BME280_pressure;Samples;Min_cycle;Max_cycle;Signal;HPM_P1;HPM_P2
2022/09/17 00:01:45;;;;;;;;;;;10.70;99.90;;;;;;5077317;28;20401;-65
2022/09/17 00:04:10;;;;;;;;;;;10.70;99.90;;;;;;5077501;28;19909;-65
2022/09/17 00:06:36;;;;;;;;;;;10.70;99.90;;;;;;5077451;28;20287;-65
2022/09/17 00:09:03;;;;;;;;;;;10.70;99.90;;;;;;5077438;28;19908;-65
2022/09/17 00:11:29;;;;;;;;;;;10.70;99.90;;;;;;5077376;28;19915;-65
2022/09/17 00:13:56;;;;;;;;;;;10.70;99.90;;;;;;5077066;28;19915;-65
2022/09/17 00:16:24;;;;;;;;;;;10.70;99.90;;;;;;5077261;28;19913;-65
2022/09/17 00:18:49;;;;;;;;;;;10.70;99.90;;;;;;5077242;28;19909;-65
2022/09/17 00:21:16;;;;;;;;;;;10.60;99.90;;;;;;5077177;28;19908;-65
2022/09/17 00:23:42;;;;;;;;;;;10.60;99.90;;;;;;5077106;28;19908;-65
2022/09/17 00:26:07;;;;;;;;;;;10.60;99.90;;;;;;5076763;28;19916;-65
2022/09/17 00:28:33;;;;;;;;;;;10.60;99.90;;;;;;5077084;28;20041;-65
2022/09/17 00:30:58;;;;;;;;;;;10.60;99.90;;;;;;5076755;28;19909;-65
2022/09/17 00:33:24;;;;;;;;;;;10.60;99.90;;;;;;5076953;28;19930;-65
2022/09/17 00:35:58;;;;;;;;;;;10.50;99.90;;;;;;5076581;28;19923;-64
2022/09/17 00:38:23;;;;;;;;;;;10.60;99.90;;;;;;5076569;28;19914;-65
2022/09/17 00:40:49;;;;;;;;;;;10.50;99.90;;;;;;5076539;28;19999;-65
2022/09/17 00:43:31;;;;;;;;;;;10.60;99.90;;;;;;5076822;28;19915;-65
2022/09/17 00:45:57;;;;;;;;;;;10.60;99.90;;;;;;5058727;28;20366;-65
2022/09/17 00:48:23;;;;;;;;;;;10.60;99.90;;;;;;5076742;28;19908;-65
2022/09/17 00:50:49;;;;;;;;;;;10.60;99.90;;;;;;5076680;28;20004;-65
2022/09/17 00:53:16;;;;;;;;;;;10.60;99.90;;;;;;5076374;28;19915;-66
2022/09/17 00:55:44;;;;;;;;;;;10.60;99.90;;;;;;5076572;28;19909;-65
2022/09/17 00:58:11;;;;;;;;;;;10.60;99.90;;;;;;5076107;28;19913;-65
2022/09/17 01:00:37;;;;;;;;;;;10.50;99.90;;;;;;5076150;28;19908;-65
2022/09/17 01:03:02;;;;;;;;;;;10.50;99.90;;;;;;5076220;28;20017;-65
2022/09/17 01:05:46;;;;;;;;;;;10.50;99.90;;;;;;5058287;28;19931;-65
2022/09/17 01:08:22;;;;;;;;;;;10.50;99.90;;;;;;5076136;28;20321;-65
2022/09/17 01:11:03;;;;;;;;;;;10.50;99.90;;;;;;5076296;28;20388;-65
2022/09/17 01:13:34;;;;;;;;;;;10.50;99.90;;;;;;5076266;28;20297;-65
2022/09/17 01:16:20;;;;;;;;;;;10.50;99.90;;;;;;5076131;28;19909;-65
2022/09/17 01:18:53;;;;;;;;;;;10.50;99.90;;;;;;5075737;28;19909;-67
2022/09/17 01:21:29;;;;;;;;;;;10.50;99.90;;;;;;5076120;28;19947;-67
2022/09/17 01:24:15;;;;;;;;;;;10.50;99.90;;;;;;5075784;28;19908;-65
2022/09/17 01:27:00;;;;;;;;;;;10.50;99.90;;;;;;5057752;28;20337;-65
2022/09/17 01:29:45;;;;;;;;;;;10.60;99.90;;;;;;5075475;28;20434;-65
2022/09/17 01:32:13;;;;;;;;;;;10.50;99.90;;;;;;5075470;28;19912;-65
2022/09/17 01:34:58;;;;;;;;;;;10.60;99.90;;;;;;5075839;28;20329;-65
2022/09/17 01:37:43;;;;;;;;;;;10.50;99.90;;;;;;5075309;28;19946;-64
2022/09/17 01:40:16;;;;;;;;;;;10.60;99.90;;;;;;5075385;28;19915;-65
2022/09/17 01:42:48;;;;;;;;;;;10.60;99.90;;;;;;5075704;28;20279;-65
2022/09/17 01:45:21;;;;;;;;;;;10.60;99.90;;;;;;5075667;28;19918;-65
2022/09/17 01:47:49;;;;;;;;;;;10.60;99.90;;;;;;5075587;28;19965;-65
2022/09/17 01:50:17;;;;;;;;;;;10.50;99.90;;;;;;5075562;28;20286;-65
2022/09/17 01:52:44;;;;;;;;;;;10.50;99.90;;;;;;5075515;28;19936;-65
2022/09/17 01:55:12;;;;;;;;;;;10.50;99.90;;;;;;5075430;28;20003;-65
2022/09/17 01:57:42;;;;;;;;;;;10.40;99.90;;;;;;5075316;28;19919;-65
2022/09/17 02:00:11;;;;;;;;;;;10.40;99.90;;;;;;5075330;28;19908;-65
2022/09/17 02:02:40;;;;;;;;;;;10.40;99.90;;;;;;5075312;28;20386;-65
2022/09/17 02:05:25;;;;;;;;;;;10.40;99.90;;;;;;5075236;28;19917;-65
2022/09/17 02:08:02;;;;;;;;;;;10.40;99.90;;;;;;5074751;28;19908;-65
2022/09/17 02:10:30;;;;;;;;;;;10.40;99.90;;;;;;5074960;28;19908;-65
2022/09/17 02:12:57;;;;;;;;;;;10.40;99.90;;;;;;5074884;28;19912;-65
2022/09/17 02:15:26;;;;;;;;;;;10.30;99.90;;;;;;5075026;28;20383;-65
2022/09/17 02:17:54;;;;;;;;;;;10.30;99.90;;;;;;5074724;28;20329;-65
2022/09/17 02:20:23;;;;;;;;;;;10.30;99.90;;;;;;5074193;28;20323;-65
2022/09/17 02:22:51;;;;;;;;;;;10.20;99.90;;;;;;5074597;28;19908;-65
2022/09/17 02:25:21;;;;;;;;;;;10.20;99.90;;;;;;5057002;28;19909;-65
2022/09/17 02:28:00;;;;;;;;;;;10.10;99.90;;;;;;5074773;28;19912;-65
2022/09/17 02:30:25;;;;;;;;;;;10.10;99.90;;;;;;5074738;28;20294;-65
2022/09/17 02:32:52;;;;;;;;;;;10.10;99.90;;;;;;5074721;28;19908;-65
2022/09/17 02:35:18;;;;;;;;;;;10.00;99.90;;;;;;5074696;28;19909;-65
2022/09/17 02:37:44;;;;;;;;;;;10.00;99.90;;;;;;5074496;28;19994;-65
2022/09/17 02:40:11;;;;;;;;;;;10.00;99.90;;;;;;5074564;28;19908;-65
2022/09/17 02:42:48;;;;;;;;;;;9.90;99.90;;;;;;5074265;28;19912;-65
2022/09/17 02:45:18;;;;;;;;;;;9.90;99.90;;;;;;5074198;28;19909;-65
2022/09/17 02:47:49;;;;;;;;;;;9.90;99.90;;;;;;5074410;28;20367;-65
2022/09/17 02:50:28;;;;;;;;;;;9.80;99.90;;;;;;5074108;28;19915;-65
2022/09/17 02:53:09;;;;;;;;;;;9.80;99.90;;;;;;5074324;28;19909;-65
2022/09/17 02:55:38;;;;;;;;;;;9.80;99.90;;;;;;5074087;28;19916;-65
2022/09/17 02:58:17;;;;;;;;;;;9.70;99.90;;;;;;5074162;28;19917;-65
2022/09/17 03:00:44;;;;;;;;;;;9.80;99.90;;;;;;5073983;28;19913;-65
2022/09/17 03:03:29;;;;;;;;;;;9.70;99.90;;;;;;5074126;28;20465;-65
2022/09/17 03:05:55;;;;;;;;;;;9.80;99.90;;;;;;5073811;28;19908;-65
2022/09/17 03:08:26;;;;;;;;;;;9.70;99.90;;;;;;5074141;28;19909;-65
2022/09/17 03:10:52;;;;;;;;;;;9.70;99.90;;;;;;5073816;28;19912;-65
2022/09/17 03:13:18;;;;;;;;;;;9.70;99.90;;;;;;5074003;28;19999;-65
2022/09/17 03:15:43;;;;;;;;;;;9.70;99.90;;;;;;5074052;28;19946;-65
2022/09/17 03:18:08;;;;;;;;;;;9.70;99.90;;;;;;5073686;28;20378;-65
2022/09/17 03:20:34;;;;;;;;;;;9.70;99.90;;;;;;5074000;28;19908;-65
2022/09/17 03:22:59;;;;;;;;;;;9.70;99.90;;;;;;5073722;28;19909;-65
2022/09/17 03:25:25;;;;;;;;;;;9.70;99.90;;;;;;5073894;28;19915;-65
2022/09/17 03:27:51;;;;;;;;;;;9.60;99.90;;;;;;5073631;28;19915;-65
2022/09/17 03:30:17;;;;;;;;;;;9.60;99.90;;;;;;5073838;28;19917;-65
2022/09/17 03:32:42;;;;;;;;;;;9.60;99.90;;;;;;5073426;28;19913;-65
2022/09/17 03:35:08;;;;;;;;;;;9.60;99.90;;;;;;5073563;28;19915;-65
2022/09/17 03:37:33;;;;;;;;;;;9.60;99.90;;;;;;5073199;28;19924;-65
2022/09/17 03:39:59;;;;;;;;;;;9.60;99.90;;;;;;5073810;28;19908;-65
2022/09/17 03:42:24;;;;;;;;;;;9.60;99.90;;;;;;5073494;28;19954;-65
2022/09/17 03:44:50;;;;;;;;;;;9.50;99.90;;;;;;5073561;28;19963;-65
2022/09/17 03:47:16;;;;;;;;;;;9.50;99.90;;;;;;5073701;28;20005;-65
2022/09/17 03:49:41;;;;;;;;;;;9.50;99.90;;;;;;5073352;28;20015;-65
2022/09/17 03:52:07;;;;;;;;;;;9.50;99.90;;;;;;5073671;28;19947;-65
2022/09/17 03:54:32;;;;;;;;;;;9.50;99.90;;;;;;5073433;28;20371;-64
2022/09/17 03:56:58;;;;;;;;;;;9.50;99.90;;;;;;5073255;28;20020;-65
2022/09/17 03:59:23;;;;;;;;;;;9.50;99.90;;;;;;5073588;28;19908;-65
2022/09/17 04:01:49;;;;;;;;;;;9.50;99.90;;;;;;5055371;28;19908;-65
2022/09/17 04:04:14;;;;;;;;;;;9.50;99.90;;;;;;5073543;28;19985;-65
2022/09/17 04:06:39;;;;;;;;;;;9.50;99.90;;;;;;5055429;28;19909;-65
2022/09/17 04:09:05;;;;;;;;;;;9.50;99.90;;;;;;5073264;28;19915;-65
2022/09/17 04:11:30;;;;;;;;;;;9.50;99.90;;;;;;5073466;28;19944;-65
2022/09/17 04:13:56;;;;;;;;;;;9.50;99.90;;;;;;5073170;28;19916;-65
2022/09/17 04:16:21;;;;;;;;;;;9.50;99.90;;;;;;5073147;28;19912;-65
2022/09/17 04:18:47;;;;;;;;;;;9.50;99.90;;;;;;5073368;28;19915;-65
2022/09/17 04:21:12;;;;;;;;;;;9.50;99.90;;;;;;5073111;28;19909;-65
2022/09/17 04:23:38;;;;;;;;;;;9.50;99.90;;;;;;5055095;28;19909;-65
2022/09/17 04:26:03;;;;;;;;;;;9.50;99.90;;;;;;5073398;28;19908;-65
2022/09/17 04:28:29;;;;;;;;;;;9.50;99.90;;;;;;5073053;28;20448;-65
2022/09/17 04:30:54;;;;;;;;;;;9.50;99.90;;;;;;5073322;28;19909;-65
2022/09/17 04:33:20;;;;;;;;;;;9.50;99.90;;;;;;5073032;28;19909;-65
2022/09/17 04:35:45;;;;;;;;;;;9.40;99.90;;;;;;5054941;28;20006;-65
2022/09/17 04:38:17;;;;;;;;;;;9.50;99.90;;;;;;5072830;28;20119;-65
2022/09/17 04:40:42;;;;;;;;;;;9.50;99.90;;;;;;5073216;28;19908;-65
2022/09/17 04:43:09;;;;;;;;;;;9.40;99.90;;;;;;5073199;28;19962;-65
2022/09/17 04:45:35;;;;;;;;;;;9.40;99.90;;;;;;5076455;28;19909;-66
2022/09/17 04:48:01;;;;;;;;;;;9.40;99.90;;;;;;5076725;28;20268;-65
2022/09/17 04:50:26;;;;;;;;;;;9.30;99.90;;;;;;5076395;28;20330;-65
2022/09/17 04:52:52;;;;;;;;;;;9.30;99.90;;;;;;5076396;28;19909;-65
2022/09/17 04:55:17;;;;;;;;;;;9.30;99.90;;;;;;5076368;28;19914;-65
2022/09/17 04:57:47;;;;;;;;;;;9.30;99.90;;;;;;5076468;28;19916;-65
2022/09/17 05:00:13;;;;;;;;;;;9.30;99.90;;;;;;5076506;28;19996;-65
2022/09/17 05:02:38;;;;;;;;;;;9.40;99.90;;;;;;5076383;28;19967;-65
2022/09/17 05:05:04;;;;;;;;;;;9.40;99.90;;;;;;5076356;28;19912;-65
2022/09/17 05:07:29;;;;;;;;;;;9.50;99.90;;;;;;5075987;28;19912;-65
2022/09/17 05:09:55;;;;;;;;;;;9.50;99.90;;;;;;5075999;28;19995;-65
2022/09/17 05:12:20;;;;;;;;;;;9.60;99.90;;;;;;5076317;28;19909;-65
2022/09/17 05:14:46;;;;;;;;;;;9.60;99.90;;;;;;5076012;28;20541;-65
2022/09/17 05:17:11;;;;;;;;;;;9.60;99.90;;;;;;5075844;28;19912;-65
2022/09/17 05:19:36;;;;;;;;;;;9.60;99.90;;;;;;5075843;28;19999;-65
2022/09/17 05:22:02;;;;;;;;;;;9.60;99.90;;;;;;5076048;28;19958;-65
2022/09/17 05:24:27;;;;;;;;;;;9.60;99.90;;;;;;5075840;28;19909;-65
2022/09/17 05:26:53;;;;;;;;;;;9.60;99.90;;;;;;5075875;28;20331;-65
2022/09/17 05:29:18;;;;;;;;;;;9.60;99.90;;;;;;5076019;28;19909;-65
2022/09/17 05:31:44;;;;;;;;;;;9.60;99.90;;;;;;5075666;28;19916;-66
2022/09/17 05:34:09;;;;;;;;;;;9.70;99.90;;;;;;5075922;28;19910;-66
2022/09/17 05:36:35;;;;;;;;;;;9.70;99.90;;;;;;5057715;28;20030;-65
2022/09/17 05:39:01;;;;;;;;;;;9.70;99.90;;;;;;5075543;28;19908;-65
2022/09/17 05:41:26;;;;;;;;;;;9.70;99.90;;;;;;5057677;28;19913;-65
2022/09/17 05:43:51;;;;;;;;;;;9.70;99.90;;;;;;5075480;28;19916;-65
2022/09/17 05:46:17;;;;;;;;;;;9.80;99.90;;;;;;5075398;28;20412;-65
2022/09/17 05:48:43;;;;;;;;;;;9.80;99.90;;;;;;5075356;28;19935;-65
2022/09/17 05:51:08;;;;;;;;;;;9.90;99.90;;;;;;5075538;28;19912;-65
2022/09/17 05:53:33;;;;;;;;;;;9.90;99.90;;;;;;5075529;28;20007;-65
2022/09/17 05:55:59;;;;;;;;;;;9.90;99.90;;;;;;5075142;28;20331;-65
2022/09/17 05:58:25;;;;;;;;;;;10.00;99.90;;;;;;5075386;28;19915;-65
2022/09/17 06:00:51;;;;;;;;;;;10.10;99.90;;;;;;5075345;28;19947;-65
2022/09/17 06:03:17;;;;;;;;;;;10.20;99.90;;;;;;5075276;28;19919;-65
2022/09/17 06:05:50;;;;;;;;;;;10.30;99.90;;;;;;5075282;28;19971;-65
2022/09/17 06:08:15;;;;;;;;;;;10.50;99.90;;;;;;5075191;28;19946;-65
2022/09/17 06:10:41;;;;;;;;;;;10.60;99.90;;;;;;5074875;28;20379;-65
2022/09/17 06:13:06;;;;;;;;;;;10.70;99.90;;;;;;5074843;28;20333;-65
2022/09/17 06:15:32;;;;;;;;;;;10.90;99.90;;;;;;5074742;28;19987;-65
2022/09/17 06:17:57;;;;;;;;;;;11.00;99.90;;;;;;5074980;28;19912;-65
2022/09/17 06:20:23;;;;;;;;;;;11.20;99.90;;;;;;5074995;28;19954;-66
2022/09/17 06:22:48;;;;;;;;;;;11.50;99.90;;;;;;5074639;28;19908;-66
2022/09/17 06:25:14;;;;;;;;;;;11.50;99.90;;;;;;5074638;28;20294;-65
2022/09/17 06:27:39;;;;;;;;;;;11.40;99.90;;;;;;5074577;28;19991;-66
2022/09/17 06:30:05;;;;;;;;;;;11.30;99.90;;;;;;5074797;28;20345;-65
2022/09/17 06:32:31;;;;;;;;;;;11.20;99.90;;;;;;5074450;28;19909;-66
2022/09/17 06:34:56;;;;;;;;;;;11.20;99.90;;;;;;5074475;28;19919;-65
2022/09/17 06:37:30;;;;;;;;;;;11.10;99.90;;;;;;5074183;28;20011;-65
2022/09/17 06:39:56;;;;;;;;;;;11.70;99.90;;;;;;5074596;28;20016;-66
2022/09/17 06:42:21;;;;;;;;;;;12.10;99.90;;;;;;5074743;28;20394;-66
2022/09/17 06:44:47;;;;;;;;;;;12.30;99.90;;;;;;5056325;28;20355;-66
2022/09/17 06:47:12;;;;;;;;;;;12.10;99.90;;;;;;5074136;28;19963;-66
2022/09/17 06:49:38;;;;;;;;;;;11.70;99.90;;;;;;5074368;28;19916;-66
2022/09/17 06:52:03;;;;;;;;;;;11.60;99.90;;;;;;5074118;28;19934;-66
2022/09/17 06:54:30;;;;;;;;;;;11.50;99.90;;;;;;5074315;28;20007;-66
2022/09/17 06:56:55;;;;;;;;;;;11.30;99.90;;;;;;5074197;28;19967;-66
2022/09/17 06:59:21;;;;;;;;;;;11.40;99.90;;;;;;5073946;28;19909;-66
2022/09/17 07:01:46;;;;;;;;;;;11.50;99.90;;;;;;5073871;28;19912;-66
2022/09/17 07:04:12;;;;;;;;;;;11.90;99.90;;;;;;5074180;28;19908;-66
2022/09/17 07:06:38;;;;;;;;;;;11.90;99.90;;;;;;5073502;28;19908;-65
2022/09/17 07:09:04;;;;;;;;;;;11.90;99.90;;;;;;5074133;28;19909;-66
2022/09/17 07:11:30;;;;;;;;;;;12.70;99.90;;;;;;5073791;28;19915;-66
2022/09/17 07:13:56;;;;;;;;;;;14.00;99.90;;;;;;5073777;28;19913;-66
2022/09/17 07:16:22;;;;;;;;;;;14.90;99.90;;;;;;5073961;28;19913;-66
2022/09/17 07:18:48;;;;;;;;;;;15.30;99.90;;;;;;5073983;28;19916;-66
2022/09/17 07:21:13;;;;;;;;;;;15.00;99.90;;;;;;5055683;28;19909;-66
2022/09/17 07:23:39;;;;;;;;;;;15.30;99.90;;;;;;5073647;28;19934;-66
2022/09/17 07:26:06;;;;;;;;;;;15.70;99.90;;;;;;5073920;28;19912;-66
2022/09/17 07:28:32;;;;;;;;;;;15.60;99.90;;;;;;5073867;28;19932;-66
2022/09/17 07:31:01;;;;;;;;;;;15.50;99.90;;;;;;5055706;28;19908;-66
2022/09/17 07:33:26;;;;;;;;;;;15.30;99.90;;;;;;5073562;28;19939;-66
2022/09/17 07:35:56;;;;;;;;;;;15.50;99.90;;;;;;5073572;28;19928;-66
2022/09/17 07:38:22;;;;;;;;;;;15.80;99.90;;;;;;5073786;28;20382;-66
2022/09/17 07:40:57;;;;;;;;;;;16.30;99.90;;;;;;5073742;28;19908;-66
2022/09/17 07:43:23;;;;;;;;;;;15.70;99.90;;;;;;5073832;28;19916;-66
2022/09/17 07:45:48;;;;;;;;;;;16.20;99.90;;;;;;5073469;28;19936;-66
2022/09/17 07:48:14;;;;;;;;;;;15.40;99.90;;;;;;5073431;28;19908;-66
2022/09/17 07:50:39;;;;;;;;;;;14.50;99.90;;;;;;5055569;28;19913;-66
2022/09/17 07:53:05;;;;;;;;;;;14.50;99.90;;;;;;5073380;28;19909;-66
2022/09/17 07:55:30;;;;;;;;;;;15.20;99.90;;;;;;5073614;28;20432;-66
2022/09/17 07:57:56;;;;;;;;;;;15.30;99.90;;;;;;5073552;28;20476;-66
2022/09/17 08:00:21;;;;;;;;;;;15.50;99.90;;;;;;5073614;28;19909;-66
2022/09/17 08:02:54;;;;;;;;;;;16.10;99.90;;;;;;5073547;28;20278;-66
2022/09/17 08:05:20;;;;;;;;;;;16.40;99.90;;;;;;5073240;28;19916;-66
2022/09/17 08:07:53;;;;;;;;;;;16.70;99.90;;;;;;5073266;28;19908;-66
2022/09/17 08:10:20;;;;;;;;;;;16.70;99.90;;;;;;5073515;28;19915;-66
2022/09/17 08:12:47;;;;;;;;;;;17.10;99.90;;;;;;5073481;28;19909;-66
2022/09/17 08:15:13;;;;;;;;;;;17.00;99.90;;;;;;5055753;28;19908;-66
2022/09/17 08:17:42;;;;;;;;;;;17.30;99.90;;;;;;5073360;28;19912;-66
2022/09/17 08:20:07;;;;;;;;;;;16.90;99.90;;;;;;5058289;28;20410;-65
2022/09/17 08:22:33;;;;;;;;;;;17.00;99.90;;;;;;5077209;28;19940;-66
2022/09/17 08:24:59;;;;;;;;;;;16.80;99.90;;;;;;5077180;28;20370;-66
2022/09/17 08:27:24;;;;;;;;;;;16.70;99.90;;;;;;5077114;28;19962;-66
2022/09/17 08:29:50;;;;;;;;;;;17.30;99.90;;;;;;5077115;28;19908;-66
2022/09/17 08:32:15;;;;;;;;;;;17.40;99.90;;;;;;5076796;28;20375;-66
2022/09/17 08:34:41;;;;;;;;;;;17.60;99.90;;;;;;5076965;28;19916;-66
2022/09/17 08:37:06;;;;;;;;;;;17.40;99.90;;;;;;5076434;28;20386;-66
2022/09/17 08:39:32;;;;;;;;;;;17.10;99.90;;;;;;5058755;28;20389;-66
2022/09/17 08:42:04;;;;;;;;;;;16.80;99.90;;;;;;5076602;28;20370;-66
2022/09/17 08:44:32;;;;;;;;;;;16.90;99.90;;;;;;5058910;28;20359;-66
2022/09/17 08:47:05;;;;;;;;;;;16.30;99.90;;;;;;5076526;28;19916;-65
2022/09/17 08:49:33;;;;;;;;;;;16.70;99.90;;;;;;5076682;28;19943;-66
2022/09/17 08:52:08;;;;;;;;;;;17.20;99.90;;;;;;5076652;28;19923;-66
2022/09/17 08:54:39;;;;;;;;;;;17.00;99.90;;;;;;5058910;28;20405;-66
2022/09/17 08:57:19;;;;;;;;;;;16.70;99.90;;;;;;5076195;28;19963;-66
2022/09/17 08:59:49;;;;;;;;;;;16.70;99.90;;;;;;5076536;28;20019;-65
2022/09/17 09:02:35;;;;;;;;;;;16.30;99.90;;;;;;5076505;28;19909;-66
2022/09/17 09:05:04;;;;;;;;;;;16.30;99.90;;;;;;5076028;28;19951;-66
2022/09/17 09:07:33;;;;;;;;;;;17.20;99.90;;;;;;5076096;28;19915;-66
2022/09/17 09:10:11;;;;;;;;;;;17.90;99.90;;;;;;5076330;28;19909;-66
2022/09/17 09:12:37;;;;;;;;;;;16.80;99.90;;;;;;5075958;28;19962;-66
2022/09/17 09:15:23;;;;;;;;;;;17.10;99.90;;;;;;5075995;28;19909;-66
2022/09/17 09:17:49;;;;;;;;;;;16.70;99.90;;;;;;5075758;28;19912;-66
2022/09/17 09:20:17;;;;;;;;;;;16.00;99.90;;;;;;5075854;28;19916;-66
2022/09/17 09:22:46;;;;;;;;;;;16.50;99.90;;;;;;5076118;28;20509;-66
2022/09/17 09:25:17;;;;;;;;;;;16.10;99.90;;;;;;5076051;28;19909;-66
2022/09/17 09:27:47;;;;;;;;;;;16.30;99.90;;;;;;5075935;28;19912;-66
2022/09/17 09:30:15;;;;;;;;;;;16.90;99.90;;;;;;5075385;28;19982;-66
2022/09/17 09:32:49;;;;;;;;;;;17.40;99.90;;;;;;5057870;28;19990;-66
2022/09/17 09:35:16;;;;;;;;;;;17.00;99.90;;;;;;5075865;28;19956;-66
2022/09/17 09:37:43;;;;;;;;;;;17.00;99.90;;;;;;5076010;28;19926;-66
2022/09/17 09:40:28;;;;;;;;;;;17.60;99.90;;;;;;5075634;28;19954;-66
2022/09/17 09:42:55;;;;;;;;;;;17.50;99.90;;;;;;5075415;28;19915;-66
2022/09/17 09:45:28;;;;;;;;;;;17.70;99.90;;;;;;5075581;28;19974;-66
2022/09/17 09:47:59;;;;;;;;;;;17.30;99.90;;;;;;5075242;28;19917;-66
2022/09/17 09:50:31;;;;;;;;;;;16.90;99.90;;;;;;5075231;28;19950;-66
2022/09/17 09:53:02;;;;;;;;;;;17.10;99.90;;;;;;5075457;28;19912;-66
2022/09/17 09:55:48;;;;;;;;;;;17.00;99.90;;;;;;5057302;28;19916;-66
2022/09/17 09:58:21;;;;;;;;;;;16.70;99.90;;;;;;5074912;28;20003;-66
2022/09/17 10:00:46;;;;;;;;;;;17.20;99.90;;;;;;5075284;28;19912;-66
2022/09/17 10:03:18;;;;;;;;;;;17.10;99.90;;;;;;5075323;28;19951;-66
2022/09/17 10:05:59;;;;;;;;;;;16.40;99.90;;;;;;5075301;28;20287;-66
2022/09/17 10:08:26;;;;;;;;;;;15.90;99.90;;;;;;5075179;28;20286;-66
2022/09/17 10:10:54;;;;;;;;;;;15.40;99.90;;;;;;5075067;28;19931;-66
2022/09/17 10:13:20;;;;;;;;;;;15.00;99.90;;;;;;5074744;28;19908;-66
2022/09/17 10:15:45;;;;;;;;;;;15.80;99.90;;;;;;5075091;28;19908;-66
2022/09/17 10:18:18;;;;;;;;;;;15.60;99.90;;;;;;5074626;28;19912;-66
2022/09/17 10:21:00;;;;;;;;;;;16.60;99.90;;;;;;5074984;28;19995;-66
2022/09/17 10:23:27;;;;;;;;;;;17.70;99.90;;;;;;5074914;28;19909;-66
2022/09/17 10:25:54;;;;;;;;;;;17.10;99.90;;;;;;5057056;28;19908;-66
2022/09/17 10:28:27;;;;;;;;;;;15.20;99.90;;;;;;5074745;28;19908;-66
2022/09/17 10:30:57;;;;;;;;;;;14.10;99.90;;;;;;5074442;28;19962;-66
2022/09/17 10:33:26;;;;;;;;;;;13.50;99.90;;;;;;5056657;28;19959;-65
2022/09/17 10:35:54;;;;;;;;;;;13.30;99.90;;;;;;5074479;28;19916;-65
2022/09/17 10:38:37;;;;;;;;;;;13.90;99.90;;;;;;5074261;28;19920;-66
2022/09/17 10:41:07;;;;;;;;;;;15.20;99.90;;;;;;5073959;28;19913;-66
2022/09/17 10:43:33;;;;;;;;;;;16.70;99.90;;;;;;5074143;28;19908;-66
2022/09/17 10:45:59;;;;;;;;;;;17.30;99.90;;;;;;5074466;28;19957;-66
2022/09/17 10:48:27;;;;;;;;;;;18.30;99.90;;;;;;5074183;28;20484;-66
2022/09/17 10:50:54;;;;;;;;;;;17.60;99.90;;;;;;5074411;28;20298;-66
2022/09/17 10:53:23;;;;;;;;;;;18.00;99.90;;;;;;5074325;28;19909;-66
2022/09/17 10:55:53;;;;;;;;;;;18.70;99.90;;;;;;5074044;28;19995;-66
2022/09/17 10:58:39;;;;;;;;;;;18.20;99.90;;;;;;5074234;28;20363;-66
2022/09/17 11:01:24;;;;;;;;;;;18.10;99.90;;;;;;5073928;28;19908;-66
2022/09/17 11:04:10;;;;;;;;;;;17.80;99.90;;;;;;5073814;28;19915;-66
2022/09/17 11:09:37;;;;;;;;;;;16.70;99.90;;;;;;5071277;28;19919;-65
2022/09/17 11:12:21;;;;;;;;;;;16.30;99.90;;;;;;5071119;28;19916;-66
2022/09/17 11:14:57;;;;;;;;;;;15.90;99.90;;;;;;5071133;28;20287;-65
2022/09/17 11:17:34;;;;;;;;;;;16.10;99.90;;;;;;5070819;28;19908;-65
2022/09/17 11:20:03;;;;;;;;;;;16.30;99.90;;;;;;5071013;28;19913;-65
2022/09/17 11:22:43;;;;;;;;;;;16.80;99.90;;;;;;5069528;28;19978;-66
2022/09/17 11:25:28;;;;;;;;;;;17.00;99.90;;;;;;5070896;28;19909;-66
2022/09/17 11:30:51;;;;;;;;;;;17.00;99.90;;;;;;5071068;28;19913;-66
2022/09/17 11:33:27;;;;;;;;;;;17.20;99.90;;;;;;5071155;28;19917;-66
2022/09/17 11:35:59;;;;;;;;;;;17.20;99.90;;;;;;5071063;28;19916;-66
2022/09/17 11:38:28;;;;;;;;;;;17.00;99.90;;;;;;5071049;28;19915;-66
2022/09/17 11:43:36;;;;;;;;;;;17.10;99.90;;;;;;5091232;27;20298;-65
2022/09/17 11:46:19;;;;;;;;;;;17.30;99.90;;;;;;5091130;28;20290;-65
2022/09/17 11:48:50;;;;;;;;;;;17.50;99.90;;;;;;5091351;28;19916;-65
2022/09/17 11:51:26;;;;;;;;;;;17.30;99.90;;;;;;5091325;28;19913;-66
2022/09/17 11:53:56;;;;;;;;;;;17.50;99.90;;;;;;5089796;28;19940;-66
2022/09/17 11:56:25;;;;;;;;;;;18.00;99.90;;;;;;5124164;28;20404;-65
2022/09/17 11:58:54;;;;;;;;;;;17.20;99.90;;;;;;5091173;28;19908;-66
2022/09/17 12:01:25;;;;;;;;;;;17.00;99.90;;;;;;5090794;28;19916;-66
2022/09/17 12:03:54;;;;;;;;;;;17.20;99.90;;;;;;5090996;28;20041;-66
2022/09/17 12:06:24;;;;;;;;;;;17.50;99.90;;;;;;5090688;28;19909;-65
2022/09/17 12:08:55;;;;;;;;;;;17.50;99.90;;;;;;5089450;28;19908;-65
2022/09/17 12:11:23;;;;;;;;;;;17.40;99.90;;;;;;5090676;28;19915;-65
2022/09/17 12:13:51;;;;;;;;;;;17.40;99.90;;;;;;5090610;28;19908;-66
2022/09/17 12:16:24;;;;;;;;;;;17.20;99.90;;;;;;5090757;28;20283;-65
2022/09/17 12:18:52;;;;;;;;;;;17.10;99.90;;;;;;5090766;28;19954;-66
2022/09/17 12:21:20;;;;;;;;;;;16.80;99.90;;;;;;5090364;28;20015;-65
2022/09/17 12:23:48;;;;;;;;;;;17.20;99.90;;;;;;5090340;28;19913;-66
2022/09/17 12:26:19;;;;;;;;;;;17.70;99.90;;;;;;5090390;28;19909;-66
2022/09/17 12:28:51;;;;;;;;;;;17.30;99.90;;;;;;5123445;28;19973;-65
2022/09/17 12:31:25;;;;;;;;;;;16.70;99.90;;;;;;5090571;28;19908;-66
2022/09/17 12:33:55;;;;;;;;;;;16.60;99.90;;;;;;5090240;28;19999;-66
2022/09/17 12:36:29;;;;;;;;;;;16.20;99.90;;;;;;5090082;28;19909;-65
2022/09/17 12:39:03;;;;;;;;;;;15.70;99.90;;;;;;5090139;28;19909;-66
2022/09/17 12:41:41;;;;;;;;;;;15.70;99.90;;;;;;5092864;28;19964;-66
2022/09/17 12:44:26;;;;;;;;;;;15.60;99.90;;;;;;5110389;28;19908;-65
2022/09/17 12:47:05;;;;;;;;;;;15.40;99.90;;;;;;5110180;28;19908;-66
2022/09/17 12:49:50;;;;;;;;;;;15.40;99.90;;;;;;5110424;28;19908;-66
2022/09/17 12:52:36;;;;;;;;;;;15.90;99.90;;;;;;5110080;28;19962;-65
2022/09/17 12:55:23;;;;;;;;;;;16.20;99.90;;;;;;5095935;28;19908;-66
2022/09/17 12:58:09;;;;;;;;;;;16.50;99.90;;;;;;5096424;28;19908;-66
2022/09/17 13:00:38;;;;;;;;;;;16.80;99.90;;;;;;5096386;28;19908;-66
2022/09/17 13:03:10;;;;;;;;;;;16.80;99.90;;;;;;5096656;28;20015;-64
2022/09/17 13:05:55;;;;;;;;;;;16.20;99.90;;;;;;5096363;28;19908;-65
2022/09/17 13:08:34;;;;;;;;;;;15.70;99.90;;;;;;5096247;28;19908;-65
2022/09/17 13:11:06;;;;;;;;;;;14.80;99.90;;;;;;5096561;28;19908;-66
2022/09/17 13:13:35;;;;;;;;;;;14.30;99.90;;;;;;5096178;28;19908;-66
2022/09/17 13:16:18;;;;;;;;;;;13.80;99.90;;;;;;5096449;28;19915;-65
2022/09/17 13:19:03;;;;;;;;;;;13.70;99.90;;;;;;5096442;28;20363;-65
2022/09/17 13:21:32;;;;;;;;;;;13.70;99.90;;;;;;5077967;28;19909;-66
2022/09/17 13:23:58;;;;;;;;;;;13.60;99.90;;;;;;5096313;28;19916;-65
2022/09/17 13:26:32;;;;;;;;;;;13.60;99.90;;;;;;5096320;28;19908;-65
2022/09/17 13:28:58;;;;;;;;;;;13.80;99.90;;;;;;5096219;28;19931;-65
2022/09/17 13:36:56;;;;;;;;;;;14.70;99.90;;;;;;5071149;28;19912;-66
2022/09/17 13:39:42;;;;;;;;;;;15.00;99.90;;;;;;5086334;28;19963;-66
2022/09/17 13:42:17;;;;;;;;;;;15.10;99.90;;;;;;5070789;28;19951;-66
2022/09/17 13:44:49;;;;;;;;;;;14.70;99.90;;;;;;5071026;28;19913;-66
2022/09/17 13:47:20;;;;;;;;;;;14.60;99.90;;;;;;5070615;28;20363;-67
2022/09/17 13:49:48;;;;;;;;;;;14.40;99.90;;;;;;5069343;28;19912;-66
2022/09/17 13:52:28;;;;;;;;;;;14.20;99.90;;;;;;5070550;28;19999;-66
2022/09/17 13:54:55;;;;;;;;;;;14.00;99.90;;;;;;5070691;28;20254;-66
2022/09/17 13:57:20;;;;;;;;;;;14.50;99.90;;;;;;5070781;28;20021;-67
2022/09/17 13:59:54;;;;;;;;;;;14.90;99.90;;;;;;5070783;28;20355;-66
2022/09/17 14:05:22;;;;;;;;;;;14.60;99.90;;;;;;5070895;28;19935;-67
2022/09/17 14:07:49;;;;;;;;;;;14.90;99.90;;;;;;5084235;28;19912;-65
2022/09/17 14:12:55;;;;;;;;;;;15.10;99.90;;;;;;5071116;28;19919;-66
2022/09/17 14:15:40;;;;;;;;;;;15.40;99.90;;;;;;5071054;28;19913;-66
2022/09/17 14:18:26;;;;;;;;;;;15.70;99.90;;;;;;5070847;28;19943;-66
2022/09/17 14:20:54;;;;;;;;;;;15.70;99.90;;;;;;5070600;28;20287;-66
2022/09/17 14:23:20;;;;;;;;;;;16.20;99.90;;;;;;5070927;28;19909;-66
2022/09/17 14:25:50;;;;;;;;;;;16.10;99.90;;;;;;5070492;28;19909;-66
2022/09/17 14:28:25;;;;;;;;;;;16.30;99.90;;;;;;5070537;28;19955;-66
2022/09/17 14:30:51;;;;;;;;;;;16.20;99.90;;;;;;5070448;28;19916;-66
2022/09/17 14:33:21;;;;;;;;;;;16.00;99.90;;;;;;5070684;28;19909;-66
2022/09/17 14:35:49;;;;;;;;;;;15.70;99.90;;;;;;5070298;28;19923;-66
2022/09/17 14:38:35;;;;;;;;;;;15.30;99.90;;;;;;5070592;28;19951;-66
2022/09/17 14:41:05;;;;;;;;;;;15.00;99.90;;;;;;5070240;28;20371;-65
2022/09/17 14:43:39;;;;;;;;;;;14.70;99.90;;;;;;5070543;28;19908;-65
2022/09/17 14:46:06;;;;;;;;;;;14.60;99.90;;;;;;5070469;28;19920;-65
2022/09/17 14:48:33;;;;;;;;;;;14.40;99.90;;;;;;5070489;28;20007;-65
2022/09/17 14:51:19;;;;;;;;;;;14.20;99.90;;;;;;5070347;28;20422;-65
2022/09/17 14:53:45;;;;;;;;;;;13.90;99.90;;;;;;5070045;28;19912;-65
2022/09/17 14:56:12;;;;;;;;;;;13.60;99.90;;;;;;5070061;28;19909;-66